sensor_id;sensor_type;location;lat;lon;timestamp;P1;durP1;ratioP1;P2;durP2;ratioP2
82038;SDS011;71610;42.628;23.378;2024-03-08T00:00:03;3.30;;;3.00;;
82038;SDS011;71610;42.628;23.378;2024-03-08T00:02:37;4.93;;;3.03;;
82038;SDS011;71610;42.628;23.378;2024-03-08T00:05:06;3.17;;;2.90;;
82038;SDS011;71610;42.628;23.378;2024-03-08T00:07:36;3.65;;;3.35;;
82038;SDS011;71610;42.628;23.378;2024-03-08T00:10:03;4.32;;;3.58;;
82038;SDS011;71610;42.628;23.378;2024-03-08T00:12:30;15.73;;;3.10;;
82038;SDS011;71610;42.628;23.378;2024-03-08T00:14:56;3.00;;;2.70;;
82038;SDS011;71610;42.628;23.378;2024-03-08T00:17:22;3.17;;;2.85;;
82038;SDS011;71610;42.628;23.378;2024-03-08T00:19:48;3.38;;;3.08;;
82038;SDS011;71610;42.628;23.378;2024-03-08T00:22:15;3.95;;;3.25;;
82038;SDS011;71610;42.628;23.378;2024-03-08T00:24:41;3.58;;;2.95;;
82038;SDS011;71610;42.628;23.378;2024-03-08T00:27:07;3.22;;;2.92;;
82038;SDS011;71610;42.628;23.378;2024-03-08T00:29:34;3.42;;;2.78;;
82038;SDS011;71610;42.628;23.378;2024-03-08T00:32:00;3.10;;;2.90;;
82038;SDS011;71610;42.628;23.378;2024-03-08T00:34:26;3.28;;;2.97;;
82038;SDS011;71610;42.628;23.378;2024-03-08T00:36:52;2.80;;;2.60;;
82038;SDS011;71610;42.628;23.378;2024-03-08T00:39:18;5.20;;;3.20;;
82038;SDS011;71610;42.628;23.378;2024-03-08T00:41:46;3.97;;;3.42;;
82038;SDS011;71610;42.628;23.378;2024-03-08T00:44:12;5.18;;;2.85;;
82038;SDS011;71610;42.628;23.378;2024-03-08T00:46:38;3.60;;;3.30;;
82038;SDS011;71610;42.628;23.378;2024-03-08T00:49:04;3.33;;;3.03;;
82038;SDS011;71610;42.628;23.378;2024-03-08T00:51:29;3.10;;;2.80;;
82038;SDS011;71610;42.628;23.378;2024-03-08T00:53:55;3.30;;;3.00;;
82038;SDS011;71610;42.628;23.378;2024-03-08T00:56:21;2.90;;;2.70;;
82038;SDS011;71610;42.628;23.378;2024-03-08T00:58:47;4.57;;;3.25;;
82038;SDS011;71610;42.628;23.378;2024-03-08T01:01:13;3.60;;;3.30;;
82038;SDS011;71610;42.628;23.378;2024-03-08T01:03:42;4.18;;;3.13;;
82038;SDS011;71610;42.628;23.378;2024-03-08T01:06:08;3.47;;;3.17;;
82038;SDS011;71610;42.628;23.378;2024-03-08T01:08:34;5.07;;;3.08;;
82038;SDS011;71610;42.628;23.378;2024-03-08T01:11:03;3.30;;;3.00;;
82038;SDS011;71610;42.628;23.378;2024-03-08T01:13:32;3.33;;;3.00;;
82038;SDS011;71610;42.628;23.378;2024-03-08T01:15:57;2.90;;;2.70;;
82038;SDS011;71610;42.628;23.378;2024-03-08T01:18:23;5.13;;;3.28;;
82038;SDS011;71610;42.628;23.378;2024-03-08T01:20:49;3.42;;;3.13;;
82038;SDS011;71610;42.628;23.378;2024-03-08T01:23:15;2.88;;;2.65;;
82038;SDS011;71610;42.628;23.378;2024-03-08T01:25:40;3.33;;;3.03;;
82038;SDS011;71610;42.628;23.378;2024-03-08T01:28:06;3.28;;;2.92;;
82038;SDS011;71610;42.628;23.378;2024-03-08T01:30:32;3.33;;;3.03;;
82038;SDS011;71610;42.628;23.378;2024-03-08T01:33:00;3.30;;;2.92;;
82038;SDS011;71610;42.628;23.378;2024-03-08T01:35:26;2.85;;;2.65;;
82038;SDS011;71610;42.628;23.378;2024-03-08T01:37:52;3.65;;;2.95;;
82038;SDS011;71610;42.628;23.378;2024-03-08T01:40:18;3.15;;;2.85;;
82038;SDS011;71610;42.628;23.378;2024-03-08T01:42:44;2.92;;;2.55;;
82038;SDS011;71610;42.628;23.378;2024-03-08T01:45:10;2.95;;;2.65;;
82038;SDS011;71610;42.628;23.378;2024-03-08T01:47:35;2.85;;;2.65;;
82038;SDS011;71610;42.628;23.378;2024-03-08T01:50:02;3.40;;;3.03;;
82038;SDS011;71610;42.628;23.378;2024-03-08T01:52:29;3.17;;;2.88;;
82038;SDS011;71610;42.628;23.378;2024-03-08T01:54:57;2.67;;;2.47;;
82038;SDS011;71610;42.628;23.378;2024-03-08T01:57:28;3.40;;;2.65;;
82038;SDS011;71610;42.628;23.378;2024-03-08T01:59:56;2.92;;;2.63;;
82038;SDS011;71610;42.628;23.378;2024-03-08T02:02:22;2.70;;;2.50;;
82038;SDS011;71610;42.628;23.378;2024-03-08T02:04:48;2.40;;;2.20;;
82038;SDS011;71610;42.628;23.378;2024-03-08T02:07:18;2.58;;;2.38;;
82038;SDS011;71610;42.628;23.378;2024-03-08T02:09:43;2.45;;;2.25;;
82038;SDS011;71610;42.628;23.378;2024-03-08T02:12:09;2.53;;;2.33;;
82038;SDS011;71610;42.628;23.378;2024-03-08T02:14:35;2.90;;;2.67;;
82038;SDS011;71610;42.628;23.378;2024-03-08T02:17:01;2.60;;;2.40;;
82038;SDS011;71610;42.628;23.378;2024-03-08T02:19:28;2.45;;;2.25;;
82038;SDS011;71610;42.628;23.378;2024-03-08T02:21:53;2.90;;;2.70;;
82038;SDS011;71610;42.628;23.378;2024-03-08T02:24:20;2.33;;;2.13;;
82038;SDS011;71610;42.628;23.378;2024-03-08T02:26:46;2.58;;;2.38;;
82038;SDS011;71610;42.628;23.378;2024-03-08T02:29:11;2.58;;;2.38;;
82038;SDS011;71610;42.628;23.378;2024-03-08T02:31:39;2.45;;;2.25;;
82038;SDS011;71610;42.628;23.378;2024-03-08T02:34:05;2.33;;;2.13;;
82038;SDS011;71610;42.628;23.378;2024-03-08T02:36:31;2.30;;;2.10;;
82038;SDS011;71610;42.628;23.378;2024-03-08T02:39:01;2.50;;;2.28;;
82038;SDS011;71610;42.628;23.378;2024-03-08T02:41:27;2.72;;;2.30;;
82038;SDS011;71610;42.628;23.378;2024-03-08T02:43:53;2.55;;;2.35;;
82038;SDS011;71610;42.628;23.378;2024-03-08T02:46:20;2.45;;;2.25;;
82038;SDS011;71610;42.628;23.378;2024-03-08T02:48:46;2.38;;;2.17;;
82038;SDS011;71610;42.628;23.378;2024-03-08T02:51:12;2.30;;;2.10;;
82038;SDS011;71610;42.628;23.378;2024-03-08T02:53:41;2.35;;;2.15;;
82038;SDS011;71610;42.628;23.378;2024-03-08T02:56:08;2.50;;;2.30;;
82038;SDS011;71610;42.628;23.378;2024-03-08T02:58:39;2.10;;;1.90;;
82038;SDS011;71610;42.628;23.378;2024-03-08T03:01:04;2.22;;;2.03;;
82038;SDS011;71610;42.628;23.378;2024-03-08T03:03:30;2.20;;;2.00;;
82038;SDS011;71610;42.628;23.378;2024-03-08T03:05:57;2.08;;;1.90;;
82038;SDS011;71610;42.628;23.378;2024-03-08T03:08:23;2.25;;;2.13;;
82038;SDS011;71610;42.628;23.378;2024-03-08T03:10:49;2.15;;;1.95;;
82038;SDS011;71610;42.628;23.378;2024-03-08T03:13:14;2.60;;;1.80;;
82038;SDS011;71610;42.628;23.378;2024-03-08T03:15:40;2.08;;;1.90;;
82038;SDS011;71610;42.628;23.378;2024-03-08T03:18:07;2.53;;;1.85;;
82038;SDS011;71610;42.628;23.378;2024-03-08T03:20:33;3.15;;;1.83;;
82038;SDS011;71610;42.628;23.378;2024-03-08T03:23:05;1.98;;;1.88;;
82038;SDS011;71610;42.628;23.378;2024-03-08T03:25:33;1.85;;;1.75;;
82038;SDS011;71610;42.628;23.378;2024-03-08T03:28:05;1.98;;;1.80;;
82038;SDS011;71610;42.628;23.378;2024-03-08T03:30:33;1.50;;;1.40;;
82038;SDS011;71610;42.628;23.378;2024-03-08T03:33:02;1.70;;;1.60;;
82038;SDS011;71610;42.628;23.378;2024-03-08T03:35:31;1.75;;;1.65;;
82038;SDS011;71610;42.628;23.378;2024-03-08T03:37:57;1.80;;;1.50;;
82038;SDS011;71610;42.628;23.378;2024-03-08T03:42:54;1.90;;;1.60;;
82038;SDS011;71610;42.628;23.378;2024-03-08T03:45:20;1.98;;;1.88;;
82038;SDS011;71610;42.628;23.378;2024-03-08T03:47:46;2.10;;;1.85;;
82038;SDS011;71610;42.628;23.378;2024-03-08T03:50:12;1.55;;;1.45;;
82038;SDS011;71610;42.628;23.378;2024-03-08T03:52:37;1.85;;;1.75;;
82038;SDS011;71610;42.628;23.378;2024-03-08T03:55:04;1.77;;;1.67;;
82038;SDS011;71610;42.628;23.378;2024-03-08T03:57:33;1.52;;;1.42;;
82038;SDS011;71610;42.628;23.378;2024-03-08T03:59:59;1.52;;;1.42;;
82038;SDS011;71610;42.628;23.378;2024-03-08T04:02:24;1.88;;;1.63;;
82038;SDS011;71610;42.628;23.378;2024-03-08T04:04:51;1.48;;;1.38;;
82038;SDS011;71610;42.628;23.378;2024-03-08T04:07:19;1.83;;;1.73;;
82038;SDS011;71610;42.628;23.378;2024-03-08T04:09:45;1.52;;;1.42;;
82038;SDS011;71610;42.628;23.378;2024-03-08T04:12:12;1.50;;;1.40;;
82038;SDS011;71610;42.628;23.378;2024-03-08T04:14:41;1.38;;;1.27;;
82038;SDS011;71610;42.628;23.378;2024-03-08T04:17:07;1.50;;;1.40;;
82038;SDS011;71610;42.628;23.378;2024-03-08T04:22:05;1.50;;;1.40;;
82038;SDS011;71610;42.628;23.378;2024-03-08T04:24:32;1.40;;;1.30;;
82038;SDS011;71610;42.628;23.378;2024-03-08T04:26:58;1.58;;;1.48;;
82038;SDS011;71610;42.628;23.378;2024-03-08T04:29:24;1.50;;;1.40;;
82038;SDS011;71610;42.628;23.378;2024-03-08T04:31:51;1.50;;;1.40;;
82038;SDS011;71610;42.628;23.378;2024-03-08T04:34:19;1.08;;;1.08;;
82038;SDS011;71610;42.628;23.378;2024-03-08T04:36:46;2.53;;;1.45;;
82038;SDS011;71610;42.628;23.378;2024-03-08T04:39:13;1.45;;;1.35;;
82038;SDS011;71610;42.628;23.378;2024-03-08T04:41:40;1.45;;;1.35;;
82038;SDS011;71610;42.628;23.378;2024-03-08T04:44:09;1.60;;;1.50;;
82038;SDS011;71610;42.628;23.378;2024-03-08T04:46:36;1.40;;;1.30;;
82038;SDS011;71610;42.628;23.378;2024-03-08T04:49:01;1.40;;;1.30;;
82038;SDS011;71610;42.628;23.378;2024-03-08T04:51:27;1.20;;;1.10;;
82038;SDS011;71610;42.628;23.378;2024-03-08T04:53:53;1.40;;;1.30;;
82038;SDS011;71610;42.628;23.378;2024-03-08T04:56:19;1.40;;;1.30;;
82038;SDS011;71610;42.628;23.378;2024-03-08T04:58:45;1.40;;;1.30;;
82038;SDS011;71610;42.628;23.378;2024-03-08T05:01:14;1.27;;;1.17;;
82038;SDS011;71610;42.628;23.378;2024-03-08T05:03:40;1.33;;;1.23;;
82038;SDS011;71610;42.628;23.378;2024-03-08T05:06:06;1.35;;;1.25;;
82038;SDS011;71610;42.628;23.378;2024-03-08T05:08:32;1.30;;;1.20;;
82038;SDS011;71610;42.628;23.378;2024-03-08T05:10:58;1.23;;;1.13;;
82038;SDS011;71610;42.628;23.378;2024-03-08T05:13:24;1.88;;;1.63;;
82038;SDS011;71610;42.628;23.378;2024-03-08T05:15:50;1.92;;;1.50;;
82038;SDS011;71610;42.628;23.378;2024-03-08T05:18:16;3.03;;;1.90;;
82038;SDS011;71610;42.628;23.378;2024-03-08T05:20:41;1.42;;;1.33;;
82038;SDS011;71610;42.628;23.378;2024-03-08T05:23:07;1.20;;;1.10;;
82038;SDS011;71610;42.628;23.378;2024-03-08T05:25:33;1.80;;;1.40;;
82038;SDS011;71610;42.628;23.378;2024-03-08T05:27:59;1.70;;;1.30;;
82038;SDS011;71610;42.628;23.378;2024-03-08T05:30:25;0.93;;;0.90;;
82038;SDS011;71610;42.628;23.378;2024-03-08T05:32:50;2.67;;;1.05;;
82038;SDS011;71610;42.628;23.378;2024-03-08T05:35:16;1.30;;;1.20;;
82038;SDS011;71610;42.628;23.378;2024-03-08T05:37:42;1.40;;;1.27;;
82038;SDS011;71610;42.628;23.378;2024-03-08T05:40:08;1.30;;;1.13;;
82038;SDS011;71610;42.628;23.378;2024-03-08T05:42:35;1.05;;;1.00;;
82038;SDS011;71610;42.628;23.378;2024-03-08T05:45:04;1.38;;;1.27;;
82038;SDS011;71610;42.628;23.378;2024-03-08T05:47:35;1.75;;;1.15;;
82038;SDS011;71610;42.628;23.378;2024-03-08T05:50:00;0.85;;;0.75;;
82038;SDS011;71610;42.628;23.378;2024-03-08T05:52:26;1.48;;;1.20;;
82038;SDS011;71610;42.628;23.378;2024-03-08T05:54:52;1.10;;;1.10;;
82038;SDS011;71610;42.628;23.378;2024-03-08T05:57:18;1.33;;;1.20;;
82038;SDS011;71610;42.628;23.378;2024-03-08T05:59:44;2.35;;;1.20;;
82038;SDS011;71610;42.628;23.378;2024-03-08T06:02:09;2.53;;;1.33;;
82038;SDS011;71610;42.628;23.378;2024-03-08T06:04:35;6.80;;;1.38;;
82038;SDS011;71610;42.628;23.378;2024-03-08T06:07:01;8.77;;;2.40;;
82038;SDS011;71610;42.628;23.378;2024-03-08T06:09:28;6.63;;;1.70;;
82038;SDS011;71610;42.628;23.378;2024-03-08T06:11:54;9.43;;;1.58;;
82038;SDS011;71610;42.628;23.378;2024-03-08T06:14:22;6.70;;;1.60;;
82038;SDS011;71610;42.628;23.378;2024-03-08T06:16:48;8.20;;;1.83;;
82038;SDS011;71610;42.628;23.378;2024-03-08T06:19:17;20.50;;;2.38;;
82038;SDS011;71610;42.628;23.378;2024-03-08T06:21:43;13.30;;;2.00;;
82038;SDS011;71610;42.628;23.378;2024-03-08T06:24:08;12.60;;;2.10;;
82038;SDS011;71610;42.628;23.378;2024-03-08T06:26:34;16.17;;;1.90;;
82038;SDS011;71610;42.628;23.378;2024-03-08T06:29:00;35.22;;;2.40;;
82038;SDS011;71610;42.628;23.378;2024-03-08T06:31:25;19.63;;;1.90;;
82038;SDS011;71610;42.628;23.378;2024-03-08T06:33:51;26.05;;;2.40;;
82038;SDS011;71610;42.628;23.378;2024-03-08T06:36:19;24.80;;;2.22;;
82038;SDS011;71610;42.628;23.378;2024-03-08T06:38:46;20.60;;;2.70;;
82038;SDS011;71610;42.628;23.378;2024-03-08T06:41:13;26.38;;;2.95;;
82038;SDS011;71610;42.628;23.378;2024-03-08T06:43:44;35.00;;;3.53;;
82038;SDS011;71610;42.628;23.378;2024-03-08T06:46:11;18.83;;;2.42;;
82038;SDS011;71610;42.628;23.378;2024-03-08T06:48:41;19.63;;;2.53;;
82038;SDS011;71610;42.628;23.378;2024-03-08T06:51:07;29.70;;;2.30;;
82038;SDS011;71610;42.628;23.378;2024-03-08T06:53:33;21.85;;;2.90;;
82038;SDS011;71610;42.628;23.378;2024-03-08T06:56:00;32.33;;;2.75;;
82038;SDS011;71610;42.628;23.378;2024-03-08T06:58:27;24.25;;;2.40;;
82038;SDS011;71610;42.628;23.378;2024-03-08T07:00:53;14.68;;;2.55;;
82038;SDS011;71610;42.628;23.378;2024-03-08T07:03:20;22.80;;;2.38;;
82038;SDS011;71610;42.628;23.378;2024-03-08T07:05:47;21.08;;;2.58;;
82038;SDS011;71610;42.628;23.378;2024-03-08T07:08:13;18.98;;;2.30;;
82038;SDS011;71610;42.628;23.378;2024-03-08T07:10:39;27.17;;;2.50;;
82038;SDS011;71610;42.628;23.378;2024-03-08T07:13:10;24.35;;;2.50;;
82038;SDS011;71610;42.628;23.378;2024-03-08T07:15:36;18.98;;;2.50;;
82038;SDS011;71610;42.628;23.378;2024-03-08T07:18:02;21.75;;;2.80;;
82038;SDS011;71610;42.628;23.378;2024-03-08T07:20:28;38.97;;;2.67;;
82038;SDS011;71610;42.628;23.378;2024-03-08T07:22:54;16.75;;;2.40;;
82038;SDS011;71610;42.628;23.378;2024-03-08T07:25:19;16.52;;;2.40;;
82038;SDS011;71610;42.628;23.378;2024-03-08T07:27:52;18.17;;;2.42;;
82038;SDS011;71610;42.628;23.378;2024-03-08T07:30:19;21.15;;;2.45;;
82038;SDS011;71610;42.628;23.378;2024-03-08T07:33:07;13.43;;;2.35;;
82038;SDS011;71610;42.628;23.378;2024-03-08T07:35:36;11.53;;;1.93;;
82038;SDS011;71610;42.628;23.378;2024-03-08T07:38:12;17.17;;;2.22;;
82038;SDS011;71610;42.628;23.378;2024-03-08T07:40:41;16.35;;;2.33;;
82038;SDS011;71610;42.628;23.378;2024-03-08T07:43:12;18.20;;;2.38;;
82038;SDS011;71610;42.628;23.378;2024-03-08T07:45:38;18.23;;;3.00;;
82038;SDS011;71610;42.628;23.378;2024-03-08T07:48:04;23.13;;;2.92;;
82038;SDS011;71610;42.628;23.378;2024-03-08T07:50:37;15.43;;;1.98;;
82038;SDS011;71610;42.628;23.378;2024-03-08T07:53:10;36.60;;;2.65;;
82038;SDS011;71610;42.628;23.378;2024-03-08T07:55:36;13.50;;;2.45;;
82038;SDS011;71610;42.628;23.378;2024-03-08T07:58:02;24.92;;;2.40;;
82038;SDS011;71610;42.628;23.378;2024-03-08T08:00:28;14.95;;;2.10;;
82038;SDS011;71610;42.628;23.378;2024-03-08T08:02:55;14.52;;;2.00;;
82038;SDS011;71610;42.628;23.378;2024-03-08T08:05:21;33.88;;;2.40;;
82038;SDS011;71610;42.628;23.378;2024-03-08T08:07:47;15.93;;;2.47;;
82038;SDS011;71610;42.628;23.378;2024-03-08T08:10:13;10.00;;;2.28;;
82038;SDS011;71610;42.628;23.378;2024-03-08T08:12:43;17.33;;;2.13;;
82038;SDS011;71610;42.628;23.378;2024-03-08T08:15:10;22.80;;;2.05;;
82038;SDS011;71610;42.628;23.378;2024-03-08T08:17:35;12.52;;;2.30;;
82038;SDS011;71610;42.628;23.378;2024-03-08T08:20:01;17.20;;;2.50;;
82038;SDS011;71610;42.628;23.378;2024-03-08T08:22:30;18.42;;;2.40;;
82038;SDS011;71610;42.628;23.378;2024-03-08T08:24:56;16.48;;;2.15;;
82038;SDS011;71610;42.628;23.378;2024-03-08T08:27:22;24.17;;;2.30;;
82038;SDS011;71610;42.628;23.378;2024-03-08T08:29:47;22.42;;;2.55;;
82038;SDS011;71610;42.628;23.378;2024-03-08T08:32:14;26.65;;;3.50;;
82038;SDS011;71610;42.628;23.378;2024-03-08T08:34:40;24.15;;;3.30;;
82038;SDS011;71610;42.628;23.378;2024-03-08T08:37:07;40.22;;;3.20;;
82038;SDS011;71610;42.628;23.378;2024-03-08T08:39:34;25.52;;;2.80;;
82038;SDS011;71610;42.628;23.378;2024-03-08T08:42:00;26.05;;;2.72;;
82038;SDS011;71610;42.628;23.378;2024-03-08T08:44:28;26.95;;;2.30;;
82038;SDS011;71610;42.628;23.378;2024-03-08T08:46:53;31.70;;;2.72;;
82038;SDS011;71610;42.628;23.378;2024-03-08T08:49:19;29.00;;;2.70;;
82038;SDS011;71610;42.628;23.378;2024-03-08T08:51:51;25.55;;;2.67;;
82038;SDS011;71610;42.628;23.378;2024-03-08T08:54:18;41.08;;;3.22;;
82038;SDS011;71610;42.628;23.378;2024-03-08T08:56:44;30.00;;;3.15;;
82038;SDS011;71610;42.628;23.378;2024-03-08T08:59:10;40.45;;;3.97;;
82038;SDS011;71610;42.628;23.378;2024-03-08T09:01:39;40.20;;;4.70;;
82038;SDS011;71610;42.628;23.378;2024-03-08T09:04:05;27.65;;;3.10;;
82038;SDS011;71610;42.628;23.378;2024-03-08T09:06:32;23.02;;;2.75;;
82038;SDS011;71610;42.628;23.378;2024-03-08T09:08:58;35.25;;;3.03;;
82038;SDS011;71610;42.628;23.378;2024-03-08T09:11:24;29.42;;;3.10;;
82038;SDS011;71610;42.628;23.378;2024-03-08T09:13:52;37.42;;;3.40;;
82038;SDS011;71610;42.628;23.378;2024-03-08T09:16:18;43.45;;;3.90;;
82038;SDS011;71610;42.628;23.378;2024-03-08T09:18:44;40.35;;;3.90;;
82038;SDS011;71610;42.628;23.378;2024-03-08T09:21:09;44.05;;;3.72;;
82038;SDS011;71610;42.628;23.378;2024-03-08T09:23:35;42.67;;;4.13;;
82038;SDS011;71610;42.628;23.378;2024-03-08T09:26:02;50.83;;;4.68;;
82038;SDS011;71610;42.628;23.378;2024-03-08T09:28:29;56.78;;;4.38;;
82038;SDS011;71610;42.628;23.378;2024-03-08T09:30:55;63.90;;;4.38;;
82038;SDS011;71610;42.628;23.378;2024-03-08T09:33:20;79.97;;;6.30;;
82038;SDS011;71610;42.628;23.378;2024-03-08T09:35:47;76.13;;;5.95;;
82038;SDS011;71610;42.628;23.378;2024-03-08T09:38:13;69.93;;;5.40;;
82038;SDS011;71610;42.628;23.378;2024-03-08T09:40:43;61.80;;;5.72;;
82038;SDS011;71610;42.628;23.378;2024-03-08T09:43:09;122.82;;;7.35;;
82038;SDS011;71610;42.628;23.378;2024-03-08T09:45:38;70.95;;;4.88;;
82038;SDS011;71610;42.628;23.378;2024-03-08T09:48:12;70.93;;;5.07;;
82038;SDS011;71610;42.628;23.378;2024-03-08T09:50:41;49.08;;;4.78;;
82038;SDS011;71610;42.628;23.378;2024-03-08T09:53:08;64.07;;;4.68;;
82038;SDS011;71610;42.628;23.378;2024-03-08T09:55:35;66.65;;;4.45;;
82038;SDS011;71610;42.628;23.378;2024-03-08T09:58:05;51.13;;;4.13;;
82038;SDS011;71610;42.628;23.378;2024-03-08T10:01:01;66.22;;;5.13;;
82038;SDS011;71610;42.628;23.378;2024-03-08T10:03:29;45.72;;;3.78;;
82038;SDS011;71610;42.628;23.378;2024-03-08T10:05:57;39.67;;;3.67;;
82038;SDS011;71610;42.628;23.378;2024-03-08T10:08:27;40.30;;;4.20;;
82038;SDS011;71610;42.628;23.378;2024-03-08T10:10:56;32.28;;;3.15;;
82038;SDS011;71610;42.628;23.378;2024-03-08T10:13:25;30.52;;;3.38;;
82038;SDS011;71610;42.628;23.378;2024-03-08T10:15:54;25.70;;;3.77;;
82038;SDS011;71610;42.628;23.378;2024-03-08T10:18:20;27.27;;;3.05;;
82038;SDS011;71610;42.628;23.378;2024-03-08T10:20:47;29.38;;;3.00;;
82038;SDS011;71610;42.628;23.378;2024-03-08T10:23:32;62.63;;;4.38;;
82038;SDS011;71610;42.628;23.378;2024-03-08T10:26:09;55.80;;;4.22;;
82038;SDS011;71610;42.628;23.378;2024-03-08T10:28:35;48.42;;;3.85;;
82038;SDS011;71610;42.628;23.378;2024-03-08T10:31:01;62.28;;;4.25;;
82038;SDS011;71610;42.628;23.378;2024-03-08T10:33:27;37.30;;;3.40;;
82038;SDS011;71610;42.628;23.378;2024-03-08T10:35:53;34.50;;;3.10;;
82038;SDS011;71610;42.628;23.378;2024-03-08T10:38:20;42.75;;;3.33;;
82038;SDS011;71610;42.628;23.378;2024-03-08T10:40:49;28.52;;;3.05;;
82038;SDS011;71610;42.628;23.378;2024-03-08T10:43:24;33.33;;;3.30;;
82038;SDS011;71610;42.628;23.378;2024-03-08T10:45:52;44.70;;;3.28;;
82038;SDS011;71610;42.628;23.378;2024-03-08T10:48:53;43.97;;;3.80;;
82038;SDS011;71610;42.628;23.378;2024-03-08T10:51:23;24.65;;;2.97;;
82038;SDS011;71610;42.628;23.378;2024-03-08T10:53:50;28.50;;;3.55;;
82038;SDS011;71610;42.628;23.378;2024-03-08T10:56:19;29.55;;;2.88;;
82038;SDS011;71610;42.628;23.378;2024-03-08T10:58:45;25.05;;;3.17;;
82038;SDS011;71610;42.628;23.378;2024-03-08T11:01:12;26.00;;;2.75;;
82038;SDS011;71610;42.628;23.378;2024-03-08T11:06:16;28.13;;;3.40;;
82038;SDS011;71610;42.628;23.378;2024-03-08T11:08:46;26.08;;;2.92;;
82038;SDS011;71610;42.628;23.378;2024-03-08T11:11:27;26.85;;;3.38;;
82038;SDS011;71610;42.628;23.378;2024-03-08T11:13:58;23.15;;;3.00;;
82038;SDS011;71610;42.628;23.378;2024-03-08T11:18:58;20.33;;;2.75;;
82038;SDS011;71610;42.628;23.378;2024-03-08T11:21:31;25.20;;;2.78;;
82038;SDS011;71610;42.628;23.378;2024-03-08T11:24:08;24.52;;;3.00;;
82038;SDS011;71610;42.628;23.378;2024-03-08T11:26:41;23.67;;;2.40;;
82038;SDS011;71610;42.628;23.378;2024-03-08T11:32:30;18.42;;;2.55;;
82038;SDS011;71610;42.628;23.378;2024-03-08T11:34:53;15.60;;;2.60;;
82038;SDS011;71610;42.628;23.378;2024-03-08T11:37:19;15.45;;;2.53;;
82038;SDS011;71610;42.628;23.378;2024-03-08T11:39:46;12.40;;;2.75;;
82038;SDS011;71610;42.628;23.378;2024-03-08T11:42:17;13.40;;;2.38;;
82038;SDS011;71610;42.628;23.378;2024-03-08T11:44:47;34.10;;;3.70;;
82038;SDS011;71610;42.628;23.378;2024-03-08T11:47:13;16.73;;;2.53;;
82038;SDS011;71610;42.628;23.378;2024-03-08T11:49:40;20.25;;;2.45;;
82038;SDS011;71610;42.628;23.378;2024-03-08T11:52:14;16.17;;;2.40;;
82038;SDS011;71610;42.628;23.378;2024-03-08T11:54:41;15.00;;;2.85;;
82038;SDS011;71610;42.628;23.378;2024-03-08T11:57:08;20.98;;;2.92;;
82038;SDS011;71610;42.628;23.378;2024-03-08T11:59:35;13.50;;;2.55;;
82038;SDS011;71610;42.628;23.378;2024-03-08T12:02:02;17.15;;;2.65;;
82038;SDS011;71610;42.628;23.378;2024-03-08T12:04:30;6.55;;;1.98;;
82038;SDS011;71610;42.628;23.378;2024-03-08T12:06:58;11.50;;;2.33;;
82038;SDS011;71610;42.628;23.378;2024-03-08T12:09:27;9.40;;;1.85;;
82038;SDS011;71610;42.628;23.378;2024-03-08T12:11:53;10.07;;;2.25;;
82038;SDS011;71610;42.628;23.378;2024-03-08T12:14:19;14.65;;;2.30;;
82038;SDS011;71610;42.628;23.378;2024-03-08T12:16:46;9.55;;;2.00;;
82038;SDS011;71610;42.628;23.378;2024-03-08T12:19:13;7.00;;;2.10;;
82038;SDS011;71610;42.628;23.378;2024-03-08T12:21:41;7.93;;;2.03;;
82038;SDS011;71610;42.628;23.378;2024-03-08T12:24:13;9.18;;;2.35;;
82038;SDS011;71610;42.628;23.378;2024-03-08T12:26:44;11.05;;;1.98;;
82038;SDS011;71610;42.628;23.378;2024-03-08T12:29:28;9.80;;;1.70;;
82038;SDS011;71610;42.628;23.378;2024-03-08T12:31:56;6.57;;;2.00;;
82038;SDS011;71610;42.628;23.378;2024-03-08T12:34:26;12.30;;;2.15;;
82038;SDS011;71610;42.628;23.378;2024-03-08T12:36:53;15.85;;;2.17;;
82038;SDS011;71610;42.628;23.378;2024-03-08T12:39:20;13.90;;;2.05;;
82038;SDS011;71610;42.628;23.378;2024-03-08T12:41:53;8.05;;;1.80;;
82038;SDS011;71610;42.628;23.378;2024-03-08T12:44:19;7.50;;;1.80;;
82038;SDS011;71610;42.628;23.378;2024-03-08T12:46:48;16.60;;;1.98;;
82038;SDS011;71610;42.628;23.378;2024-03-08T12:49:14;7.18;;;1.90;;
82038;SDS011;71610;42.628;23.378;2024-03-08T12:51:46;9.93;;;1.70;;
82038;SDS011;71610;42.628;23.378;2024-03-08T12:54:11;10.65;;;1.80;;
82038;SDS011;71610;42.628;23.378;2024-03-08T12:56:38;5.97;;;1.90;;
82038;SDS011;71610;42.628;23.378;2024-03-08T12:59:05;6.47;;;1.58;;
82038;SDS011;71610;42.628;23.378;2024-03-08T13:01:32;7.22;;;1.80;;
82038;SDS011;71610;42.628;23.378;2024-03-08T13:03:59;3.72;;;1.42;;
82038;SDS011;71610;42.628;23.378;2024-03-08T13:06:28;9.73;;;1.95;;
82038;SDS011;71610;42.628;23.378;2024-03-08T13:08:55;15.25;;;1.92;;
82038;SDS011;71610;42.628;23.378;2024-03-08T13:11:22;6.80;;;1.83;;
82038;SDS011;71610;42.628;23.378;2024-03-08T13:13:48;8.20;;;1.48;;
82038;SDS011;71610;42.628;23.378;2024-03-08T13:16:14;7.25;;;1.70;;
82038;SDS011;71610;42.628;23.378;2024-03-08T13:18:42;14.35;;;1.60;;
82038;SDS011;71610;42.628;23.378;2024-03-08T13:21:08;23.52;;;3.08;;
82038;SDS011;71610;42.628;23.378;2024-03-08T13:23:40;32.30;;;3.28;;
82038;SDS011;71610;42.628;23.378;2024-03-08T13:26:10;33.90;;;3.50;;
82038;SDS011;71610;42.628;23.378;2024-03-08T13:28:43;42.92;;;3.03;;
82038;SDS011;71610;42.628;23.378;2024-03-08T13:31:10;42.22;;;3.10;;
82038;SDS011;71610;42.628;23.378;2024-03-08T13:33:36;34.55;;;2.90;;
82038;SDS011;71610;42.628;23.378;2024-03-08T13:36:04;34.63;;;3.47;;
82038;SDS011;71610;42.628;23.378;2024-03-08T13:38:43;23.85;;;3.00;;
82038;SDS011;71610;42.628;23.378;2024-03-08T13:41:11;26.95;;;3.17;;
82038;SDS011;71610;42.628;23.378;2024-03-08T13:43:39;36.60;;;4.03;;
82038;SDS011;71610;42.628;23.378;2024-03-08T13:46:11;45.10;;;4.00;;
82038;SDS011;71610;42.628;23.378;2024-03-08T13:48:37;18.98;;;2.67;;
82038;SDS011;71610;42.628;23.378;2024-03-08T13:51:06;40.35;;;3.83;;
82038;SDS011;71610;42.628;23.378;2024-03-08T13:53:32;30.50;;;3.55;;
82038;SDS011;71610;42.628;23.378;2024-03-08T13:56:00;25.73;;;2.58;;
82038;SDS011;71610;42.628;23.378;2024-03-08T13:58:27;30.20;;;3.20;;
82038;SDS011;71610;42.628;23.378;2024-03-08T14:00:53;35.58;;;4.03;;
82038;SDS011;71610;42.628;23.378;2024-03-08T14:03:18;40.47;;;2.90;;
82038;SDS011;71610;42.628;23.378;2024-03-08T14:05:46;46.72;;;3.95;;
82038;SDS011;71610;42.628;23.378;2024-03-08T14:08:11;59.05;;;4.53;;
82038;SDS011;71610;42.628;23.378;2024-03-08T14:10:37;66.68;;;4.45;;
82038;SDS011;71610;42.628;23.378;2024-03-08T14:13:04;65.10;;;4.60;;
82038;SDS011;71610;42.628;23.378;2024-03-08T14:15:31;54.55;;;3.78;;
82038;SDS011;71610;42.628;23.378;2024-03-08T14:17:58;57.40;;;4.32;;
82038;SDS011;71610;42.628;23.378;2024-03-08T14:20:24;46.67;;;3.97;;
82038;SDS011;71610;42.628;23.378;2024-03-08T14:22:53;53.83;;;4.00;;
82038;SDS011;71610;42.628;23.378;2024-03-08T14:25:20;51.28;;;3.55;;
82038;SDS011;71610;42.628;23.378;2024-03-08T14:27:48;49.95;;;3.33;;
82038;SDS011;71610;42.628;23.378;2024-03-08T14:30:16;50.42;;;3.63;;
82038;SDS011;71610;42.628;23.378;2024-03-08T14:33:00;68.82;;;5.70;;
82038;SDS011;71610;42.628;23.378;2024-03-08T14:37:52;47.40;;;4.43;;
82038;SDS011;71610;42.628;23.378;2024-03-08T14:40:18;51.03;;;4.25;;
82038;SDS011;71610;42.628;23.378;2024-03-08T14:42:50;28.10;;;3.05;;
82038;SDS011;71610;42.628;23.378;2024-03-08T14:45:16;35.15;;;3.65;;